createdAt,value
2023-03-11T00:01:58.294Z,100615.72
2023-03-11T00:06:59.994Z,100612.03
2023-03-11T00:12:02.916Z,100619.88
2023-03-11T00:17:04.580Z,100623.19
2023-03-11T00:22:06.196Z,100626.03
2023-03-11T00:27:07.869Z,100629.91
2023-03-11T00:32:09.560Z,100637.50
2023-03-11T00:37:11.954Z,100645.97
2023-03-11T00:42:13.643Z,100653.69
2023-03-11T00:47:15.264Z,100659.84
2023-03-11T00:52:16.986Z,100663.16
2023-03-11T00:57:18.725Z,100657.56
2023-03-11T01:02:21.029Z,100661.72
2023-03-11T01:07:23.690Z,100672.16
2023-03-11T01:12:25.447Z,100680.47
2023-03-11T01:17:27.124Z,100684.34
2023-03-11T01:22:28.742Z,100688.66
2023-03-11T01:27:31.122Z,100684.34
2023-03-11T01:32:32.770Z,100690.78
2023-03-11T01:37:34.608Z,100692.22
2023-03-11T01:42:36.321Z,100693.66
2023-03-11T01:47:40.335Z,100686.06
2023-03-11T01:52:44.808Z,100696.94
2023-03-11T01:57:47.789Z,100688.78
2023-03-11T02:02:52.784Z,100699.38
2023-03-11T02:07:56.362Z,100704.81
2023-03-11T02:13:03.503Z,100716.16
2023-03-11T02:18:07.171Z,100715.88
2023-03-11T02:23:09.922Z,100709.56
2023-03-11T02:28:13.534Z,100703.38
2023-03-11T02:33:16.842Z,100698.09
2023-03-11T02:38:20.877Z,100702.41
2023-03-11T02:43:41.079Z,100695.22
2023-03-11T02:48:44.729Z,100710.81
2023-03-11T02:53:58.463Z,100712.81
2023-03-11T02:59:01.398Z,100711.84
2023-03-11T03:04:04.859Z,100709.13
2023-03-11T03:09:08.229Z,100717.25
2023-03-11T03:14:09.927Z,100725.72
2023-03-11T03:19:11.696Z,100732.72
2023-03-11T03:24:13.486Z,100743.06
2023-03-11T03:29:15.346Z,100743.31
2023-03-11T03:34:17.868Z,100753.47
2023-03-11T03:39:19.997Z,100766.09
2023-03-11T03:44:23.715Z,100778.69
2023-03-11T03:49:25.440Z,100771.63
2023-03-11T03:54:27.672Z,100778.81
2023-03-11T03:59:30.429Z,100785.09
2023-03-11T04:04:34.572Z,100790.06
2023-03-11T04:09:40.069Z,100794.94
2023-03-11T04:14:42.454Z,100789.59
2023-03-11T04:19:44.980Z,100787.34
2023-03-11T04:24:47.460Z,100795.81
2023-03-11T04:29:49.456Z,100791.94
2023-03-11T04:34:51.218Z,100799.81
2023-03-11T04:39:53.468Z,100804.81
2023-03-11T04:44:55.385Z,100802.88
2023-03-11T04:49:57.387Z,100811.16
2023-03-11T04:54:59.647Z,100807.09
2023-03-11T05:00:01.346Z,100806.78
2023-03-11T05:05:06.750Z,100811.75
2023-03-11T05:10:09.353Z,100816.22
2023-03-11T05:15:12.437Z,100819.19
2023-03-11T05:20:15.830Z,100810.50
2023-03-11T05:25:18.358Z,100823.34
2023-03-11T05:30:20.278Z,100834.78
2023-03-11T05:35:23.499Z,100837.28
2023-03-11T05:40:25.306Z,100834.34
2023-03-11T05:45:27.538Z,100833.97
2023-03-11T05:50:31.497Z,100840.03
2023-03-11T05:55:33.314Z,100854.13
2023-03-11T06:00:35.676Z,100856.84
2023-03-11T06:05:45.444Z,100854.75
2023-03-11T06:10:49.020Z,100862.78
2023-03-11T06:15:52.022Z,100861.66
2023-03-11T06:20:59.211Z,100871.66
2023-03-11T06:26:05.897Z,100865.72
2023-03-11T06:31:19.558Z,100877.34
2023-03-11T06:36:22.337Z,100876.84
2023-03-11T06:41:25.670Z,100885.22
2023-03-11T06:46:27.794Z,100898.19
2023-03-11T06:51:30.806Z,100903.13
2023-03-11T06:56:32.805Z,100912.84
2023-03-11T07:01:39.508Z,100932.44
2023-03-11T07:06:43.459Z,100933.56
2023-03-11T07:11:53.030Z,100924.44
2023-03-11T07:17:01.390Z,100925.28
2023-03-11T07:22:08.552Z,100926.75
2023-03-11T07:27:10.199Z,100929.09
2023-03-11T07:32:11.925Z,100928.59
2023-03-11T07:37:14.292Z,100923.81
2023-03-11T07:42:16.009Z,100936.94
2023-03-11T07:47:17.688Z,100944.00
2023-03-11T07:52:20.237Z,100938.31
2023-03-11T07:57:21.919Z,100947.97
2023-03-11T08:02:23.677Z,100961.53
2023-03-11T08:07:25.395Z,100961.28
2023-03-11T08:12:27.006Z,100968.16
2023-03-11T08:17:28.781Z,100975.28
2023-03-11T08:22:30.554Z,100977.34
2023-03-11T08:27:32.302Z,100974.00
2023-03-11T08:32:34.094Z,100984.66
2023-03-11T08:37:35.706Z,100985.81
2023-03-11T08:42:37.377Z,100996.03
2023-03-11T08:47:39.303Z,101004.53
2023-03-11T08:52:41.129Z,101008.59
2023-03-11T08:57:42.840Z,101020.31
2023-03-11T09:02:44.525Z,101025.19
2023-03-11T09:07:46.342Z,101016.28
2023-03-11T09:12:47.978Z,101028.38
2023-03-11T09:17:49.654Z,101011.00
2023-03-11T09:22:51.284Z,101013.72
2023-03-11T09:27:52.842Z,101028.09
2023-03-11T09:32:54.714Z,101019.59
2023-03-11T09:37:56.391Z,101015.06
2023-03-11T09:43:19.343Z,101018.56
2023-03-11T09:48:32.363Z,101020.59
2023-03-11T09:53:49.406Z,101029.00
2023-03-11T09:59:00.022Z,101031.97
2023-03-11T10:04:15.012Z,101025.09
2023-03-11T10:09:37.029Z,101020.81
2023-03-11T10:15:17.235Z,101020.38
2023-03-11T10:20:29.204Z,101023.19
2023-03-11T10:25:46.653Z,101021.88
2023-03-11T10:30:53.027Z,101016.78
2023-03-11T10:35:58.447Z,101014.06
2023-03-11T10:41:05.008Z,101019.84
2023-03-11T10:46:18.828Z,101017.94
2023-03-11T10:51:27.054Z,101012.41
2023-03-11T10:56:30.644Z,101020.84
2023-03-11T11:01:32.997Z,101027.41
2023-03-11T11:06:36.135Z,101035.03
2023-03-11T11:11:39.623Z,101029.22
2023-03-11T11:16:41.294Z,101041.75
2023-03-11T11:21:48.797Z,101042.31
2023-03-11T11:27:15.109Z,101052.22
2023-03-11T11:32:21.624Z,101052.75
2023-03-11T11:37:26.881Z,101055.66
2023-03-11T11:42:31.313Z,101044.81
2023-03-11T11:47:39.555Z,101035.00
2023-03-11T11:52:47.978Z,101036.09
2023-03-11T11:57:51.429Z,101032.28
2023-03-11T12:03:10.342Z,101022.66
2023-03-11T12:08:30.764Z,101022.44
2023-03-11T12:14:02.096Z,101029.72
2023-03-11T12:19:19.613Z,101040.53
2023-03-11T12:24:45.752Z,101039.13
2023-03-11T12:29:52.895Z,101039.69
2023-03-11T12:34:54.574Z,101041.16
2023-03-11T12:39:56.316Z,101047.00
2023-03-11T12:45:36.530Z,101046.59
2023-03-11T12:50:41.265Z,101040.88
2023-03-11T12:56:01.303Z,101040.72
2023-03-11T13:01:20.891Z,101042.53
2023-03-11T13:06:41.273Z,101032.47
2023-03-11T13:11:45.902Z,101026.13
2023-03-11T13:16:47.939Z,101028.03
2023-03-11T13:21:49.576Z,101041.63
2023-03-11T13:27:02.194Z,101038.50
2023-03-11T13:32:45.280Z,101035.38
2023-03-11T13:38:24.220Z,101038.09
2023-03-11T13:43:26.518Z,101039.47
2023-03-11T13:48:37.680Z,101047.31
2023-03-11T13:53:46.100Z,101054.78
2023-03-11T13:58:47.696Z,101052.38
2023-03-11T14:03:49.544Z,101051.44
2023-03-11T14:08:55.619Z,101051.47
2023-03-11T14:13:57.285Z,101056.13
2023-03-11T14:19:04.855Z,101067.50
2023-03-11T14:24:06.621Z,101069.81
2023-03-11T14:29:12.804Z,101066.66
2023-03-11T14:34:20.124Z,101072.53
2023-03-11T14:39:33.920Z,101076.28
2023-03-11T14:44:40.419Z,101058.97
2023-03-11T14:49:42.878Z,101066.97
2023-03-11T14:54:45.876Z,101066.28
2023-03-11T14:59:51.089Z,101069.84
2023-03-11T15:04:54.637Z,101063.56
2023-03-11T15:09:56.646Z,101061.66
2023-03-11T15:15:01.455Z,101066.31
2023-03-11T15:20:55.283Z,101065.53
2023-03-11T15:26:55.960Z,101058.34
2023-03-11T15:33:28.948Z,101067.16
2023-03-11T15:39:26.567Z,101040.16
2023-03-11T15:44:41.206Z,101045.63
2023-03-11T15:49:43.267Z,101044.00
2023-03-11T15:54:54.724Z,101052.38
2023-03-11T15:59:59.976Z,101061.63
2023-03-11T16:05:01.887Z,101053.44
2023-03-11T16:10:04.514Z,101062.78
2023-03-11T16:15:07.300Z,101060.47
2023-03-11T16:20:09.688Z,101056.66
2023-03-11T16:25:23.667Z,101060.56
2023-03-11T16:30:29.727Z,101057.13
2023-03-11T16:35:31.422Z,101051.38
2023-03-11T16:40:33.091Z,101058.13
2023-03-11T16:45:34.787Z,101045.56
2023-03-11T16:50:37.638Z,101059.25
2023-03-11T16:55:39.602Z,101052.97
2023-03-11T17:00:42.117Z,101063.69
2023-03-11T17:05:43.901Z,101056.81
2023-03-11T17:10:46.465Z,101052.81
2023-03-11T17:16:02.557Z,101052.53
2023-03-11T17:21:09.799Z,101057.91
2023-03-11T17:26:16.659Z,101054.19
2023-03-11T17:31:19.015Z,101056.16
2023-03-11T17:36:20.846Z,101059.56
2023-03-11T17:41:23.450Z,101063.47
2023-03-11T17:46:25.260Z,101068.50
2023-03-11T17:51:26.965Z,101080.63
2023-03-11T17:56:28.744Z,101085.19
2023-03-11T18:01:30.618Z,101085.66
2023-03-11T18:06:32.303Z,101091.25
2023-03-11T18:11:33.984Z,101087.94
2023-03-11T18:16:35.691Z,101088.09
2023-03-11T18:21:37.712Z,101097.13
2023-03-11T18:26:39.380Z,101098.88
2023-03-11T18:31:41.244Z,101092.03
2023-03-11T18:36:43.294Z,101088.13
2023-03-11T18:41:44.997Z,101086.09
2023-03-11T18:46:46.677Z,101089.28
2023-03-11T18:51:48.278Z,101082.78
2023-03-11T18:56:50.311Z,101091.19
2023-03-11T19:01:51.940Z,101093.03
2023-03-11T19:06:53.680Z,101094.63
2023-03-11T19:11:55.376Z,101086.31
2023-03-11T19:16:57.283Z,101084.88
2023-03-11T19:21:59.016Z,101083.28
2023-03-11T19:27:00.709Z,101076.38
2023-03-11T19:32:03.656Z,101074.66
2023-03-11T19:37:05.596Z,101070.78
2023-03-11T19:42:07.277Z,101077.66
2023-03-11T19:47:09.191Z,101081.25
2023-03-11T19:52:11.239Z,101077.13
2023-03-11T19:57:12.878Z,101076.38
2023-03-11T20:02:14.766Z,101080.41
2023-03-11T20:07:16.903Z,101080.25
2023-03-11T20:12:18.831Z,101086.03
2023-03-11T20:17:20.578Z,101083.84
2023-03-11T20:22:22.267Z,101088.31
2023-03-11T20:27:24.035Z,101088.31
2023-03-11T20:32:25.831Z,101093.06
2023-03-11T20:37:29.967Z,101087.03
2023-03-11T20:42:31.970Z,101085.00
2023-03-11T20:47:33.618Z,101085.56
2023-03-11T20:52:35.988Z,101076.91
2023-03-11T20:57:38.702Z,101078.66
2023-03-11T21:02:42.327Z,101080.25
2023-03-11T21:07:44.248Z,101078.31
2023-03-11T21:12:45.853Z,101073.41
2023-03-11T21:17:47.579Z,101066.84
2023-03-11T21:22:49.649Z,101069.97
2023-03-11T21:27:51.372Z,101061.22
2023-03-11T21:32:53.141Z,101060.50
2023-03-11T21:37:55.151Z,101059.94
2023-03-11T21:42:56.825Z,101060.31
2023-03-11T21:47:58.428Z,101058.50
2023-03-11T21:53:00.211Z,101054.34
2023-03-11T21:58:02.124Z,101047.56
2023-03-11T22:03:04.093Z,101049.19
2023-03-11T22:08:05.779Z,101051.63
2023-03-11T22:13:07.971Z,101048.75
2023-03-11T22:18:10.677Z,101037.97
2023-03-11T22:23:12.539Z,101041.00
2023-03-11T22:28:14.823Z,101038.44
2023-03-11T22:33:17.020Z,101030.38
2023-03-11T22:38:18.785Z,101028.66
2023-03-11T22:43:20.868Z,101031.53
2023-03-11T22:48:22.529Z,101038.13
2023-03-11T22:53:25.041Z,101031.75
2023-03-11T22:58:26.728Z,101027.63
2023-03-11T23:03:28.593Z,101030.47
2023-03-11T23:08:30.378Z,101021.47
2023-03-11T23:13:35.649Z,101010.81
2023-03-11T23:18:37.955Z,100990.00
2023-03-11T23:23:39.662Z,100991.25
2023-03-11T23:28:42.455Z,100982.38
2023-03-11T23:33:45.363Z,100977.59
2023-03-11T23:38:47.743Z,100975.31
2023-03-11T23:43:49.652Z,100970.84
2023-03-11T23:48:51.545Z,100961.50
2023-03-11T23:53:53.238Z,100965.50
2023-03-11T23:58:54.909Z,100977.16
